sensor_id;sensor_type;location;lat;lon;timestamp;temperature;humidity
1800;DHT22;919;48.274;12.292;2022-09-09T00:01:56;12.60;99.90
1800;DHT22;919;48.274;12.292;2022-09-09T00:04:27;12.70;99.90
1800;DHT22;919;48.274;12.292;2022-09-09T00:07:01;12.60;99.90
1800;DHT22;919;48.274;12.292;2022-09-09T00:09:32;12.70;99.90
1800;DHT22;919;48.274;12.292;2022-09-09T00:12:10;12.70;99.90
1800;DHT22;919;48.274;12.292;2022-09-09T00:14:45;12.80;99.90
1800;DHT22;919;48.274;12.292;2022-09-09T00:17:29;12.80;99.90
1800;DHT22;919;48.274;12.292;2022-09-09T00:20:00;12.80;99.90
1800;DHT22;919;48.274;12.292;2022-09-09T00:22:30;12.80;99.90
1800;DHT22;919;48.274;12.292;2022-09-09T00:25:04;12.80;99.90
1800;DHT22;919;48.274;12.292;2022-09-09T00:27:41;12.70;99.90
1800;DHT22;919;48.274;12.292;2022-09-09T00:30:16;12.60;99.90
1800;DHT22;919;48.274;12.292;2022-09-09T00:32:46;12.50;99.90
1800;DHT22;919;48.274;12.292;2022-09-09T00:35:18;12.50;99.90
1800;DHT22;919;48.274;12.292;2022-09-09T00:37:51;12.50;99.90
1800;DHT22;919;48.274;12.292;2022-09-09T00:40:25;12.40;99.90
1800;DHT22;919;48.274;12.292;2022-09-09T00:43:08;12.40;99.90
1800;DHT22;919;48.274;12.292;2022-09-09T00:45:57;12.20;99.90
1800;DHT22;919;48.274;12.292;2022-09-09T00:48:29;12.20;99.90
1800;DHT22;919;48.274;12.292;2022-09-09T00:51:04;12.10;99.90
1800;DHT22;919;48.274;12.292;2022-09-09T00:53:51;12.00;99.90
1800;DHT22;919;48.274;12.292;2022-09-09T00:56:22;12.00;99.90
1800;DHT22;919;48.274;12.292;2022-09-09T00:58:57;12.10;99.90
1800;DHT22;919;48.274;12.292;2022-09-09T01:01:28;12.10;99.90
1800;DHT22;919;48.274;12.292;2022-09-09T01:03:56;12.10;99.90
1800;DHT22;919;48.274;12.292;2022-09-09T01:06:30;12.10;99.90
1800;DHT22;919;48.274;12.292;2022-09-09T01:09:13;12.10;99.90
1800;DHT22;919;48.274;12.292;2022-09-09T01:11:51;12.00;99.90
1800;DHT22;919;48.274;12.292;2022-09-09T01:14:32;11.90;99.90
1800;DHT22;919;48.274;12.292;2022-09-09T01:17:05;11.50;99.90
1800;DHT22;919;48.274;12.292;2022-09-09T01:19:44;11.40;99.90
1800;DHT22;919;48.274;12.292;2022-09-09T01:22:21;11.60;99.90
1800;DHT22;919;48.274;12.292;2022-09-09T01:25:06;11.70;99.90
1800;DHT22;919;48.274;12.292;2022-09-09T01:27:37;11.70;99.90
1800;DHT22;919;48.274;12.292;2022-09-09T01:30:09;11.90;99.90
1800;DHT22;919;48.274;12.292;2022-09-09T01:32:40;12.00;99.90
1800;DHT22;919;48.274;12.292;2022-09-09T01:35:11;12.00;99.90
1800;DHT22;919;48.274;12.292;2022-09-09T01:37:39;11.90;99.90
1800;DHT22;919;48.274;12.292;2022-09-09T01:40:07;11.90;99.90
1800;DHT22;919;48.274;12.292;2022-09-09T01:42:34;11.90;99.90
1800;DHT22;919;48.274;12.292;2022-09-09T01:45:04;11.90;99.90
1800;DHT22;919;48.274;12.292;2022-09-09T01:47:31;12.00;99.90
1800;DHT22;919;48.274;12.292;2022-09-09T01:49:59;12.10;99.90
1800;DHT22;919;48.274;12.292;2022-09-09T01:52:27;12.20;99.90
1800;DHT22;919;48.274;12.292;2022-09-09T01:54:54;12.20;99.90
1800;DHT22;919;48.274;12.292;2022-09-09T01:57:24;12.20;99.90
1800;DHT22;919;48.274;12.292;2022-09-09T02:00:03;12.20;99.90
1800;DHT22;919;48.274;12.292;2022-09-09T02:02:35;12.20;99.90
1800;DHT22;919;48.274;12.292;2022-09-09T02:05:11;12.10;99.90
1800;DHT22;919;48.274;12.292;2022-09-09T02:07:40;12.10;99.90
1800;DHT22;919;48.274;12.292;2022-09-09T02:10:11;12.00;99.90
1800;DHT22;919;48.274;12.292;2022-09-09T02:12:42;12.10;99.90
1800;DHT22;919;48.274;12.292;2022-09-09T02:15:17;12.20;99.90
1800;DHT22;919;48.274;12.292;2022-09-09T02:17:46;12.20;99.90
1800;DHT22;919;48.274;12.292;2022-09-09T02:20:16;12.30;99.90
1800;DHT22;919;48.274;12.292;2022-09-09T02:22:47;12.30;99.90
1800;DHT22;919;48.274;12.292;2022-09-09T02:25:18;12.40;99.90
1800;DHT22;919;48.274;12.292;2022-09-09T02:27:47;12.40;99.90
1800;DHT22;919;48.274;12.292;2022-09-09T02:30:17;12.40;99.90
1800;DHT22;919;48.274;12.292;2022-09-09T02:32:46;12.30;99.90
1800;DHT22;919;48.274;12.292;2022-09-09T02:35:18;12.30;99.90
1800;DHT22;919;48.274;12.292;2022-09-09T02:37:46;12.30;99.90
1800;DHT22;919;48.274;12.292;2022-09-09T02:40:14;12.50;99.90
1800;DHT22;919;48.274;12.292;2022-09-09T02:42:43;12.60;99.90
1800;DHT22;919;48.274;12.292;2022-09-09T02:45:12;12.60;99.90
1800;DHT22;919;48.274;12.292;2022-09-09T02:47:46;12.60;99.90
1800;DHT22;919;48.274;12.292;2022-09-09T02:50:17;12.70;99.90
1800;DHT22;919;48.274;12.292;2022-09-09T02:52:56;12.70;99.90
1800;DHT22;919;48.274;12.292;2022-09-09T02:55:34;12.60;99.90
1800;DHT22;919;48.274;12.292;2022-09-09T02:58:06;12.60;99.90
1800;DHT22;919;48.274;12.292;2022-09-09T03:00:35;12.70;99.90
1800;DHT22;919;48.274;12.292;2022-09-09T03:03:04;12.90;99.90
1800;DHT22;919;48.274;12.292;2022-09-09T03:05:31;12.90;99.90
1800;DHT22;919;48.274;12.292;2022-09-09T03:07:58;13.00;99.90
1800;DHT22;919;48.274;12.292;2022-09-09T03:10:25;13.10;99.90
1800;DHT22;919;48.274;12.292;2022-09-09T03:12:52;13.10;99.90
1800;DHT22;919;48.274;12.292;2022-09-09T03:15:20;13.10;99.90
1800;DHT22;919;48.274;12.292;2022-09-09T03:17:47;13.20;99.90
1800;DHT22;919;48.274;12.292;2022-09-09T03:20:15;13.20;99.90
1800;DHT22;919;48.274;12.292;2022-09-09T03:22:42;13.30;99.90
1800;DHT22;919;48.274;12.292;2022-09-09T03:25:10;13.30;99.90
1800;DHT22;919;48.274;12.292;2022-09-09T03:27:37;13.40;99.90
1800;DHT22;919;48.274;12.292;2022-09-09T03:30:04;13.40;99.90
1800;DHT22;919;48.274;12.292;2022-09-09T03:32:32;13.40;99.90
1800;DHT22;919;48.274;12.292;2022-09-09T03:34:59;13.30;99.90
1800;DHT22;919;48.274;12.292;2022-09-09T03:37:27;13.30;99.90
1800;DHT22;919;48.274;12.292;2022-09-09T03:39:53;13.30;99.90
1800;DHT22;919;48.274;12.292;2022-09-09T03:42:21;13.40;99.90
1800;DHT22;919;48.274;12.292;2022-09-09T03:44:48;13.40;99.90
1800;DHT22;919;48.274;12.292;2022-09-09T03:47:16;13.30;99.90
1800;DHT22;919;48.274;12.292;2022-09-09T03:49:44;13.30;99.90
1800;DHT22;919;48.274;12.292;2022-09-09T03:52:12;13.20;99.90
1800;DHT22;919;48.274;12.292;2022-09-09T03:54:40;13.30;99.90
1800;DHT22;919;48.274;12.292;2022-09-09T03:57:08;13.30;99.90
1800;DHT22;919;48.274;12.292;2022-09-09T03:59:35;13.40;99.90
1800;DHT22;919;48.274;12.292;2022-09-09T04:02:02;13.40;99.90
1800;DHT22;919;48.274;12.292;2022-09-09T04:04:29;13.40;99.90
1800;DHT22;919;48.274;12.292;2022-09-09T04:06:55;13.50;99.90
1800;DHT22;919;48.274;12.292;2022-09-09T04:09:22;13.40;99.90
1800;DHT22;919;48.274;12.292;2022-09-09T04:11:50;13.30;99.90
1800;DHT22;919;48.274;12.292;2022-09-09T04:14:18;13.30;99.90
1800;DHT22;919;48.274;12.292;2022-09-09T04:16:45;13.40;99.90
1800;DHT22;919;48.274;12.292;2022-09-09T04:19:12;13.40;99.90
1800;DHT22;919;48.274;12.292;2022-09-09T04:21:40;13.40;99.90
1800;DHT22;919;48.274;12.292;2022-09-09T04:24:08;13.40;99.90
1800;DHT22;919;48.274;12.292;2022-09-09T04:26:35;13.40;99.90
1800;DHT22;919;48.274;12.292;2022-09-09T04:29:04;13.40;99.90
1800;DHT22;919;48.274;12.292;2022-09-09T04:31:33;13.40;99.90
1800;DHT22;919;48.274;12.292;2022-09-09T04:33:59;13.40;99.90
1800;DHT22;919;48.274;12.292;2022-09-09T04:36:30;13.40;99.90
1800;DHT22;919;48.274;12.292;2022-09-09T04:38:58;13.40;99.90
1800;DHT22;919;48.274;12.292;2022-09-09T04:41:25;13.40;99.90
1800;DHT22;919;48.274;12.292;2022-09-09T04:43:51;13.40;99.90
1800;DHT22;919;48.274;12.292;2022-09-09T04:46:20;13.20;99.90
1800;DHT22;919;48.274;12.292;2022-09-09T04:48:48;13.20;99.90
1800;DHT22;919;48.274;12.292;2022-09-09T04:51:15;13.20;99.90
1800;DHT22;919;48.274;12.292;2022-09-09T04:53:42;13.30;99.90
1800;DHT22;919;48.274;12.292;2022-09-09T04:56:11;13.30;99.90
1800;DHT22;919;48.274;12.292;2022-09-09T04:58:38;13.30;99.90
1800;DHT22;919;48.274;12.292;2022-09-09T05:01:08;13.20;99.90
1800;DHT22;919;48.274;12.292;2022-09-09T05:03:36;13.20;99.90
1800;DHT22;919;48.274;12.292;2022-09-09T05:06:05;13.30;99.90
1800;DHT22;919;48.274;12.292;2022-09-09T05:08:34;13.30;99.90
1800;DHT22;919;48.274;12.292;2022-09-09T05:11:01;13.30;99.90
1800;DHT22;919;48.274;12.292;2022-09-09T05:13:28;13.40;99.90
1800;DHT22;919;48.274;12.292;2022-09-09T05:15:57;13.40;99.90
1800;DHT22;919;48.274;12.292;2022-09-09T05:18:24;13.50;99.90
1800;DHT22;919;48.274;12.292;2022-09-09T05:20:52;13.50;99.90
1800;DHT22;919;48.274;12.292;2022-09-09T05:23:19;13.50;99.90
1800;DHT22;919;48.274;12.292;2022-09-09T05:25:57;13.40;99.90
1800;DHT22;919;48.274;12.292;2022-09-09T05:28:24;13.40;99.90
1800;DHT22;919;48.274;12.292;2022-09-09T05:30:58;13.40;99.90
1800;DHT22;919;48.274;12.292;2022-09-09T05:33:26;13.40;99.90
1800;DHT22;919;48.274;12.292;2022-09-09T05:35:59;13.40;99.90
1800;DHT22;919;48.274;12.292;2022-09-09T05:38:27;13.40;99.90
1800;DHT22;919;48.274;12.292;2022-09-09T05:40:54;13.50;99.90
1800;DHT22;919;48.274;12.292;2022-09-09T05:43:22;13.60;99.90
1800;DHT22;919;48.274;12.292;2022-09-09T05:45:58;13.70;99.90
1800;DHT22;919;48.274;12.292;2022-09-09T05:48:28;13.80;99.90
1800;DHT22;919;48.274;12.292;2022-09-09T05:50:55;13.90;99.90
1800;DHT22;919;48.274;12.292;2022-09-09T05:53:23;14.10;99.90
1800;DHT22;919;48.274;12.292;2022-09-09T05:55:50;14.20;99.90
1800;DHT22;919;48.274;12.292;2022-09-09T05:58:18;14.30;99.90
1800;DHT22;919;48.274;12.292;2022-09-09T06:00:44;14.30;99.90
1800;DHT22;919;48.274;12.292;2022-09-09T06:03:11;14.40;99.90
1800;DHT22;919;48.274;12.292;2022-09-09T06:05:38;14.50;99.90
1800;DHT22;919;48.274;12.292;2022-09-09T06:08:05;14.50;99.90
1800;DHT22;919;48.274;12.292;2022-09-09T06:10:34;14.70;99.90
1800;DHT22;919;48.274;12.292;2022-09-09T06:13:00;14.80;99.90
1800;DHT22;919;48.274;12.292;2022-09-09T06:15:27;14.80;99.90
1800;DHT22;919;48.274;12.292;2022-09-09T06:17:56;14.90;99.90
1800;DHT22;919;48.274;12.292;2022-09-09T06:20:22;14.90;99.90
1800;DHT22;919;48.274;12.292;2022-09-09T06:22:50;14.80;99.90
1800;DHT22;919;48.274;12.292;2022-09-09T06:25:16;14.80;99.90
1800;DHT22;919;48.274;12.292;2022-09-09T06:27:48;14.80;99.90
1800;DHT22;919;48.274;12.292;2022-09-09T06:30:15;14.70;99.90
1800;DHT22;919;48.274;12.292;2022-09-09T06:32:42;14.80;99.90
1800;DHT22;919;48.274;12.292;2022-09-09T06:35:09;14.80;99.90
1800;DHT22;919;48.274;12.292;2022-09-09T06:37:36;14.80;99.90
1800;DHT22;919;48.274;12.292;2022-09-09T06:40:03;14.80;99.90
1800;DHT22;919;48.274;12.292;2022-09-09T06:42:30;14.80;99.90
1800;DHT22;919;48.274;12.292;2022-09-09T06:44:58;14.80;99.90
1800;DHT22;919;48.274;12.292;2022-09-09T06:47:25;14.80;99.90
1800;DHT22;919;48.274;12.292;2022-09-09T06:49:52;14.80;99.90
1800;DHT22;919;48.274;12.292;2022-09-09T06:52:19;14.80;99.90
1800;DHT22;919;48.274;12.292;2022-09-09T06:54:45;14.80;99.90
1800;DHT22;919;48.274;12.292;2022-09-09T06:57:12;14.90;99.90
1800;DHT22;919;48.274;12.292;2022-09-09T06:59:39;14.90;99.90
1800;DHT22;919;48.274;12.292;2022-09-09T07:02:07;15.00;99.90
1800;DHT22;919;48.274;12.292;2022-09-09T07:04:34;15.10;99.90
1800;DHT22;919;48.274;12.292;2022-09-09T07:07:02;15.10;99.90
1800;DHT22;919;48.274;12.292;2022-09-09T07:09:29;15.10;99.90
1800;DHT22;919;48.274;12.292;2022-09-09T07:11:57;15.10;99.90
1800;DHT22;919;48.274;12.292;2022-09-09T07:14:25;15.10;99.90
1800;DHT22;919;48.274;12.292;2022-09-09T07:16:52;15.20;99.90
1800;DHT22;919;48.274;12.292;2022-09-09T07:19:20;15.10;99.90
1800;DHT22;919;48.274;12.292;2022-09-09T07:21:47;15.20;99.90
1800;DHT22;919;48.274;12.292;2022-09-09T07:24:13;15.20;99.90
1800;DHT22;919;48.274;12.292;2022-09-09T07:26:41;15.20;99.90
1800;DHT22;919;48.274;12.292;2022-09-09T07:29:08;15.20;99.90
1800;DHT22;919;48.274;12.292;2022-09-09T07:31:36;15.10;99.90
1800;DHT22;919;48.274;12.292;2022-09-09T07:34:04;15.20;99.90
1800;DHT22;919;48.274;12.292;2022-09-09T07:36:34;15.30;99.90
1800;DHT22;919;48.274;12.292;2022-09-09T07:39:04;15.40;99.90
1800;DHT22;919;48.274;12.292;2022-09-09T07:41:33;15.60;99.90
1800;DHT22;919;48.274;12.292;2022-09-09T07:44:04;15.70;99.90
1800;DHT22;919;48.274;12.292;2022-09-09T07:46:32;15.90;99.90
1800;DHT22;919;48.274;12.292;2022-09-09T07:48:59;16.00;99.90
1800;DHT22;919;48.274;12.292;2022-09-09T07:51:28;16.20;99.90
1800;DHT22;919;48.274;12.292;2022-09-09T07:53:59;16.40;99.90
1800;DHT22;919;48.274;12.292;2022-09-09T07:56:28;16.70;99.90
1800;DHT22;919;48.274;12.292;2022-09-09T07:58:56;16.90;99.90
1800;DHT22;919;48.274;12.292;2022-09-09T08:01:26;17.10;99.90
1800;DHT22;919;48.274;12.292;2022-09-09T08:03:54;17.20;99.90
1800;DHT22;919;48.274;12.292;2022-09-09T08:06:24;17.30;99.90
1800;DHT22;919;48.274;12.292;2022-09-09T08:08:52;17.50;99.90
1800;DHT22;919;48.274;12.292;2022-09-09T08:11:22;17.80;99.90
1800;DHT22;919;48.274;12.292;2022-09-09T08:13:51;17.90;99.90
1800;DHT22;919;48.274;12.292;2022-09-09T08:16:19;18.00;99.90
1800;DHT22;919;48.274;12.292;2022-09-09T08:18:47;18.10;99.90
1800;DHT22;919;48.274;12.292;2022-09-09T08:21:16;18.20;99.90
1800;DHT22;919;48.274;12.292;2022-09-09T08:23:44;18.30;99.90
1800;DHT22;919;48.274;12.292;2022-09-09T08:26:14;18.40;99.90
1800;DHT22;919;48.274;12.292;2022-09-09T08:28:43;18.30;99.90
1800;DHT22;919;48.274;12.292;2022-09-09T08:31:12;18.20;99.90
1800;DHT22;919;48.274;12.292;2022-09-09T08:33:40;18.20;99.90
1800;DHT22;919;48.274;12.292;2022-09-09T08:36:10;18.20;99.90
1800;DHT22;919;48.274;12.292;2022-09-09T08:38:37;17.90;99.90
1800;DHT22;919;48.274;12.292;2022-09-09T08:41:16;17.80;99.90
1800;DHT22;919;48.274;12.292;2022-09-09T08:43:50;17.80;99.90
1800;DHT22;919;48.274;12.292;2022-09-09T08:46:21;17.70;99.90
1800;DHT22;919;48.274;12.292;2022-09-09T08:48:55;17.60;99.90
1800;DHT22;919;48.274;12.292;2022-09-09T08:51:25;17.60;99.90
1800;DHT22;919;48.274;12.292;2022-09-09T08:53:55;17.60;99.90
1800;DHT22;919;48.274;12.292;2022-09-09T08:56:25;17.60;99.90
1800;DHT22;919;48.274;12.292;2022-09-09T08:58:55;17.60;99.90
1800;DHT22;919;48.274;12.292;2022-09-09T09:01:44;17.50;99.90
1800;DHT22;919;48.274;12.292;2022-09-09T09:04:33;17.50;99.90
1800;DHT22;919;48.274;12.292;2022-09-09T09:07:11;17.50;99.90
1800;DHT22;919;48.274;12.292;2022-09-09T09:09:48;17.50;99.90
1800;DHT22;919;48.274;12.292;2022-09-09T09:12:25;17.50;99.90
1800;DHT22;919;48.274;12.292;2022-09-09T09:14:55;17.50;99.90
1800;DHT22;919;48.274;12.292;2022-09-09T09:17:25;17.50;99.90
1800;DHT22;919;48.274;12.292;2022-09-09T09:19:53;17.50;99.90
1800;DHT22;919;48.274;12.292;2022-09-09T09:22:22;17.50;99.90
1800;DHT22;919;48.274;12.292;2022-09-09T09:24:53;17.50;99.90
1800;DHT22;919;48.274;12.292;2022-09-09T09:27:28;17.40;99.90
1800;DHT22;919;48.274;12.292;2022-09-09T09:30:00;17.40;99.90
1800;DHT22;919;48.274;12.292;2022-09-09T09:32:30;17.40;99.90
1800;DHT22;919;48.274;12.292;2022-09-09T09:35:02;17.40;99.90
1800;DHT22;919;48.274;12.292;2022-09-09T09:37:33;17.40;99.90
1800;DHT22;919;48.274;12.292;2022-09-09T09:40:09;17.40;99.90
1800;DHT22;919;48.274;12.292;2022-09-09T09:42:36;17.50;99.90
1800;DHT22;919;48.274;12.292;2022-09-09T09:45:17;17.50;99.90
1800;DHT22;919;48.274;12.292;2022-09-09T09:47:58;17.60;99.90
1800;DHT22;919;48.274;12.292;2022-09-09T09:50:24;17.70;99.90
1800;DHT22;919;48.274;12.292;2022-09-09T09:52:55;17.80;99.90
1800;DHT22;919;48.274;12.292;2022-09-09T09:55:23;17.80;99.90
1800;DHT22;919;48.274;12.292;2022-09-09T09:57:51;18.00;99.90
1800;DHT22;919;48.274;12.292;2022-09-09T10:00:22;18.10;99.90
1800;DHT22;919;48.274;12.292;2022-09-09T10:02:50;18.20;99.90
1800;DHT22;919;48.274;12.292;2022-09-09T10:05:20;18.20;99.90
1800;DHT22;919;48.274;12.292;2022-09-09T10:08:00;18.20;99.90
1800;DHT22;919;48.274;12.292;2022-09-09T10:10:37;18.20;99.90
1800;DHT22;919;48.274;12.292;2022-09-09T10:13:11;18.10;99.90
1800;DHT22;919;48.274;12.292;2022-09-09T10:15:51;17.90;99.90
1800;DHT22;919;48.274;12.292;2022-09-09T10:18:39;17.80;99.90
1800;DHT22;919;48.274;12.292;2022-09-09T10:21:19;17.70;99.90
1800;DHT22;919;48.274;12.292;2022-09-09T10:24:02;17.60;99.90
1800;DHT22;919;48.274;12.292;2022-09-09T10:26:38;17.60;99.90
1800;DHT22;919;48.274;12.292;2022-09-09T10:29:28;17.50;99.90
1800;DHT22;919;48.274;12.292;2022-09-09T10:32:07;17.40;99.90
1800;DHT22;919;48.274;12.292;2022-09-09T10:34:50;17.30;99.90
1800;DHT22;919;48.274;12.292;2022-09-09T10:37:32;17.30;99.90
1800;DHT22;919;48.274;12.292;2022-09-09T10:40:15;17.40;99.90
1800;DHT22;919;48.274;12.292;2022-09-09T10:42:45;17.40;99.90
1800;DHT22;919;48.274;12.292;2022-09-09T10:45:17;17.50;99.90
1800;DHT22;919;48.274;12.292;2022-09-09T10:47:59;17.40;99.90
1800;DHT22;919;48.274;12.292;2022-09-09T10:50:45;17.50;99.90
1800;DHT22;919;48.274;12.292;2022-09-09T10:53:24;17.50;99.90
1800;DHT22;919;48.274;12.292;2022-09-09T10:55:56;17.40;99.90
1800;DHT22;919;48.274;12.292;2022-09-09T10:58:28;17.50;99.90
1800;DHT22;919;48.274;12.292;2022-09-09T11:01:00;17.60;99.90
1800;DHT22;919;48.274;12.292;2022-09-09T11:03:32;17.50;99.90
1800;DHT22;919;48.274;12.292;2022-09-09T11:06:01;17.40;99.90
1800;DHT22;919;48.274;12.292;2022-09-09T11:08:34;17.40;99.90
1800;DHT22;919;48.274;12.292;2022-09-09T11:11:03;17.40;99.90
1800;DHT22;919;48.274;12.292;2022-09-09T11:13:35;17.50;99.90
1800;DHT22;919;48.274;12.292;2022-09-09T11:16:15;17.60;99.90
1800;DHT22;919;48.274;12.292;2022-09-09T11:18:47;17.60;99.90
1800;DHT22;919;48.274;12.292;2022-09-09T11:21:18;17.70;99.90
1800;DHT22;919;48.274;12.292;2022-09-09T11:23:50;17.80;99.90
1800;DHT22;919;48.274;12.292;2022-09-09T11:26:27;17.80;99.90
1800;DHT22;919;48.274;12.292;2022-09-09T11:29:07;17.80;99.90
1800;DHT22;919;48.274;12.292;2022-09-09T11:31:44;17.70;99.90
1800;DHT22;919;48.274;12.292;2022-09-09T11:34:22;17.70;99.90
1800;DHT22;919;48.274;12.292;2022-09-09T11:37:17;17.60;99.90
1800;DHT22;919;48.274;12.292;2022-09-09T11:40:09;17.50;99.90
1800;DHT22;919;48.274;12.292;2022-09-09T11:42:40;17.50;99.90
1800;DHT22;919;48.274;12.292;2022-09-09T11:45:22;17.40;99.90
1800;DHT22;919;48.274;12.292;2022-09-09T11:47:52;17.40;99.90
1800;DHT22;919;48.274;12.292;2022-09-09T11:50:39;17.40;99.90
1800;DHT22;919;48.274;12.292;2022-09-09T11:53:18;17.50;99.90
1800;DHT22;919;48.274;12.292;2022-09-09T11:56:04;17.40;99.90
1800;DHT22;919;48.274;12.292;2022-09-09T11:58:38;17.50;99.90
1800;DHT22;919;48.274;12.292;2022-09-09T12:01:29;17.50;99.90
1800;DHT22;919;48.274;12.292;2022-09-09T12:04:16;17.60;99.90
1800;DHT22;919;48.274;12.292;2022-09-09T12:06:48;17.70;99.90
1800;DHT22;919;48.274;12.292;2022-09-09T12:09:23;17.80;99.90
1800;DHT22;919;48.274;12.292;2022-09-09T12:11:51;17.70;99.90
1800;DHT22;919;48.274;12.292;2022-09-09T12:14:23;17.70;99.90
1800;DHT22;919;48.274;12.292;2022-09-09T12:17:09;17.80;99.90
1800;DHT22;919;48.274;12.292;2022-09-09T12:19:36;18.00;99.90
1800;DHT22;919;48.274;12.292;2022-09-09T12:22:09;18.00;99.90
1800;DHT22;919;48.274;12.292;2022-09-09T12:24:46;18.10;99.90
1800;DHT22;919;48.274;12.292;2022-09-09T12:27:18;18.10;99.90
1800;DHT22;919;48.274;12.292;2022-09-09T12:29:53;18.10;99.90
1800;DHT22;919;48.274;12.292;2022-09-09T12:32:24;18.40;99.90
1800;DHT22;919;48.274;12.292;2022-09-09T12:34:54;18.60;99.90
1800;DHT22;919;48.274;12.292;2022-09-09T12:37:31;18.90;99.90
1800;DHT22;919;48.274;12.292;2022-09-09T12:40:00;19.10;99.90
1800;DHT22;919;48.274;12.292;2022-09-09T12:42:28;19.00;99.90
1800;DHT22;919;48.274;12.292;2022-09-09T12:44:57;18.80;99.90
1800;DHT22;919;48.274;12.292;2022-09-09T12:47:31;18.70;99.90
1800;DHT22;919;48.274;12.292;2022-09-09T12:50:01;18.70;99.90
1800;DHT22;919;48.274;12.292;2022-09-09T12:52:31;18.70;99.90
1800;DHT22;919;48.274;12.292;2022-09-09T12:55:01;18.90;99.90
1800;DHT22;919;48.274;12.292;2022-09-09T12:57:34;19.00;99.90
1800;DHT22;919;48.274;12.292;2022-09-09T13:00:08;19.10;99.90
1800;DHT22;919;48.274;12.292;2022-09-09T13:02:46;19.00;99.90
1800;DHT22;919;48.274;12.292;2022-09-09T13:05:15;18.90;99.90
1800;DHT22;919;48.274;12.292;2022-09-09T13:07:44;18.90;99.90
1800;DHT22;919;48.274;12.292;2022-09-09T13:10:14;18.90;99.90
1800;DHT22;919;48.274;12.292;2022-09-09T13:12:42;19.00;99.90
1800;DHT22;919;48.274;12.292;2022-09-09T13:15:19;19.20;99.90
1800;DHT22;919;48.274;12.292;2022-09-09T13:17:54;19.40;99.90
1800;DHT22;919;48.274;12.292;2022-09-09T13:20:22;19.40;99.90
1800;DHT22;919;48.274;12.292;2022-09-09T13:22:52;19.50;99.90
1800;DHT22;919;48.274;12.292;2022-09-09T13:25:22;19.50;99.90
1800;DHT22;919;48.274;12.292;2022-09-09T13:27:59;19.50;99.90
1800;DHT22;919;48.274;12.292;2022-09-09T13:30:28;19.40;99.90
1800;DHT22;919;48.274;12.292;2022-09-09T13:33:17;19.40;99.90
1800;DHT22;919;48.274;12.292;2022-09-09T13:35:47;19.40;99.90
1800;DHT22;919;48.274;12.292;2022-09-09T13:38:17;19.40;99.90
1800;DHT22;919;48.274;12.292;2022-09-09T13:40:55;19.30;99.90
1800;DHT22;919;48.274;12.292;2022-09-09T13:43:24;19.30;99.90
1800;DHT22;919;48.274;12.292;2022-09-09T13:45:56;19.30;99.90
1800;DHT22;919;48.274;12.292;2022-09-09T13:48:23;19.30;99.90
1800;DHT22;919;48.274;12.292;2022-09-09T13:50:55;19.30;99.90
1800;DHT22;919;48.274;12.292;2022-09-09T13:53:23;19.30;99.90
1800;DHT22;919;48.274;12.292;2022-09-09T13:55:50;19.10;99.90
1800;DHT22;919;48.274;12.292;2022-09-09T13:58:18;19.00;99.90
1800;DHT22;919;48.274;12.292;2022-09-09T14:00:45;18.90;99.90
1800;DHT22;919;48.274;12.292;2022-09-09T14:03:12;18.80;99.90
1800;DHT22;919;48.274;12.292;2022-09-09T14:05:40;18.80;99.90
1800;DHT22;919;48.274;12.292;2022-09-09T14:08:14;18.60;99.90
1800;DHT22;919;48.274;12.292;2022-09-09T14:10:43;18.70;99.90
1800;DHT22;919;48.274;12.292;2022-09-09T14:13:10;18.80;99.90
1800;DHT22;919;48.274;12.292;2022-09-09T14:15:37;19.00;99.90
1800;DHT22;919;48.274;12.292;2022-09-09T14:18:04;19.00;99.90
1800;DHT22;919;48.274;12.292;2022-09-09T14:20:31;19.20;99.90
1800;DHT22;919;48.274;12.292;2022-09-09T14:22:58;19.20;99.90
1800;DHT22;919;48.274;12.292;2022-09-09T14:25:25;19.40;99.90
1800;DHT22;919;48.274;12.292;2022-09-09T14:27:53;19.50;99.90
1800;DHT22;919;48.274;12.292;2022-09-09T14:30:21;20.00;99.90
1800;DHT22;919;48.274;12.292;2022-09-09T14:32:48;20.50;99.90
1800;DHT22;919;48.274;12.292;2022-09-09T14:35:15;20.40;99.90
1800;DHT22;919;48.274;12.292;2022-09-09T14:37:42;20.00;99.90
1800;DHT22;919;48.274;12.292;2022-09-09T14:40:10;19.70;99.90
1800;DHT22;919;48.274;12.292;2022-09-09T14:42:37;19.50;99.90
1800;DHT22;919;48.274;12.292;2022-09-09T14:45:07;19.30;99.90
1800;DHT22;919;48.274;12.292;2022-09-09T14:47:34;19.10;99.90
1800;DHT22;919;48.274;12.292;2022-09-09T14:50:01;18.90;99.90
1800;DHT22;919;48.274;12.292;2022-09-09T14:52:30;18.70;99.90
1800;DHT22;919;48.274;12.292;2022-09-09T14:54:56;18.60;99.90
1800;DHT22;919;48.274;12.292;2022-09-09T14:57:23;18.60;99.90
1800;DHT22;919;48.274;12.292;2022-09-09T14:59:50;18.50;99.90
1800;DHT22;919;48.274;12.292;2022-09-09T15:02:18;18.50;99.90
1800;DHT22;919;48.274;12.292;2022-09-09T15:04:45;18.50;99.90
1800;DHT22;919;48.274;12.292;2022-09-09T15:07:12;18.50;99.90
1800;DHT22;919;48.274;12.292;2022-09-09T15:09:39;18.50;99.90
1800;DHT22;919;48.274;12.292;2022-09-09T15:12:05;18.50;99.90
1800;DHT22;919;48.274;12.292;2022-09-09T15:14:32;18.40;99.90
1800;DHT22;919;48.274;12.292;2022-09-09T15:17:00;18.40;99.90
1800;DHT22;919;48.274;12.292;2022-09-09T15:19:28;18.30;99.90
1800;DHT22;919;48.274;12.292;2022-09-09T15:21:55;18.20;99.90
1800;DHT22;919;48.274;12.292;2022-09-09T15:24:22;18.20;99.90
1800;DHT22;919;48.274;12.292;2022-09-09T15:26:48;18.20;99.90
1800;DHT22;919;48.274;12.292;2022-09-09T15:29:15;18.20;99.90
1800;DHT22;919;48.274;12.292;2022-09-09T15:31:42;18.10;99.90
1800;DHT22;919;48.274;12.292;2022-09-09T15:34:09;18.10;99.90
1800;DHT22;919;48.274;12.292;2022-09-09T15:36:39;18.10;99.90
1800;DHT22;919;48.274;12.292;2022-09-09T15:39:07;18.20;99.90
1800;DHT22;919;48.274;12.292;2022-09-09T15:41:35;18.20;99.90
1800;DHT22;919;48.274;12.292;2022-09-09T15:44:02;18.30;99.90
1800;DHT22;919;48.274;12.292;2022-09-09T15:46:31;18.30;99.90
1800;DHT22;919;48.274;12.292;2022-09-09T15:49:02;18.30;99.90
1800;DHT22;919;48.274;12.292;2022-09-09T15:51:29;18.30;99.90
1800;DHT22;919;48.274;12.292;2022-09-09T15:53:58;18.30;99.90
1800;DHT22;919;48.274;12.292;2022-09-09T15:56:26;18.30;99.90
1800;DHT22;919;48.274;12.292;2022-09-09T15:58:55;18.30;99.90
1800;DHT22;919;48.274;12.292;2022-09-09T16:01:23;18.30;99.90
1800;DHT22;919;48.274;12.292;2022-09-09T16:03:50;18.40;99.90
1800;DHT22;919;48.274;12.292;2022-09-09T16:06:18;18.40;99.90
1800;DHT22;919;48.274;12.292;2022-09-09T16:08:48;18.40;99.90
1800;DHT22;919;48.274;12.292;2022-09-09T16:11:19;18.50;99.90
1800;DHT22;919;48.274;12.292;2022-09-09T16:13:47;18.40;99.90
1800;DHT22;919;48.274;12.292;2022-09-09T16:16:15;18.40;99.90
1800;DHT22;919;48.274;12.292;2022-09-09T16:18:43;18.30;99.90
1800;DHT22;919;48.274;12.292;2022-09-09T16:21:14;18.20;99.90
1800;DHT22;919;48.274;12.292;2022-09-09T16:23:41;18.20;99.90
1800;DHT22;919;48.274;12.292;2022-09-09T16:26:09;18.10;99.90